sensor_id;sensor_type;location;lat;lon;timestamp;temperature;humidity
75782;DHT22;64400;44.762;37.698;2022-10-17T07:38:40;17.70;69.52
75782;DHT22;64400;44.762;37.698;2022-10-17T07:41:35;17.69;70.71
75782;DHT22;64400;44.762;37.698;2022-10-17T07:44:23;17.85;70.66
75782;DHT22;64400;44.762;37.698;2022-10-17T07:47:10;17.93;69.45
75782;DHT22;64400;44.762;37.698;2022-10-17T07:50:14;17.83;70.36
75782;DHT22;64400;44.762;37.698;2022-10-17T07:53:08;17.53;70.72
75782;DHT22;64400;44.762;37.698;2022-10-17T07:56:06;17.60;72.24
75782;DHT22;64400;44.762;37.698;2022-10-17T07:58:54;17.72;71.37
75782;DHT22;64400;44.762;37.698;2022-10-17T08:01:41;17.93;70.53
75782;DHT22;64400;44.762;37.698;2022-10-17T08:04:28;17.52;70.79
75782;DHT22;64400;44.762;37.698;2022-10-17T08:07:34;17.39;72.18
75782;DHT22;64400;44.762;37.698;2022-10-17T08:10:28;17.41;72.45
75782;DHT22;64400;44.762;37.698;2022-10-17T08:13:22;17.69;71.76
75782;DHT22;64400;44.762;37.698;2022-10-17T08:16:16;17.80;71.85
75782;DHT22;64400;44.762;37.698;2022-10-17T08:19:10;17.45;72.71
75782;DHT22;64400;44.762;37.698;2022-10-17T08:22:06;17.76;71.27
75782;DHT22;64400;44.762;37.698;2022-10-17T08:24:53;17.47;72.97
75782;DHT22;64400;44.762;37.698;2022-10-17T08:27:40;17.45;73.32
75782;DHT22;64400;44.762;37.698;2022-10-17T08:30:27;17.62;72.64
75782;DHT22;64400;44.762;37.698;2022-10-17T08:33:16;18.05;71.23
75782;DHT22;64400;44.762;37.698;2022-10-17T08:36:04;18.57;69.49
75782;DHT22;64400;44.762;37.698;2022-10-17T08:38:52;18.46;70.05
75782;DHT22;64400;44.762;37.698;2022-10-17T08:47:46;18.59;68.99
75782;DHT22;64400;44.762;37.698;2022-10-17T08:50:59;18.11;70.75
75782;DHT22;64400;44.762;37.698;2022-10-17T08:54:12;17.75;72.49
75782;DHT22;64400;44.762;37.698;2022-10-17T08:57:15;17.84;72.34
75782;DHT22;64400;44.762;37.698;2022-10-17T09:00:18;18.51;71.79
75782;DHT22;64400;44.762;37.698;2022-10-17T09:06:17;19.50;67.54
75782;DHT22;64400;44.762;37.698;2022-10-17T09:09:19;19.56;66.95
75782;DHT22;64400;44.762;37.698;2022-10-17T09:18:28;19.22;67.75
75782;DHT22;64400;44.762;37.698;2022-10-17T09:21:11;18.86;68.94
75782;DHT22;64400;44.762;37.698;2022-10-17T09:23:51;19.14;67.86
75782;DHT22;64400;44.762;37.698;2022-10-17T09:26:39;19.12;68.01
75782;DHT22;64400;44.762;37.698;2022-10-17T09:29:28;18.88;68.77
75782;DHT22;64400;44.762;37.698;2022-10-17T09:32:22;19.01;68.36
75782;DHT22;64400;44.762;37.698;2022-10-17T09:35:13;19.16;67.69
75782;DHT22;64400;44.762;37.698;2022-10-17T09:38:01;18.78;69.16
75782;DHT22;64400;44.762;37.698;2022-10-17T09:41:09;18.83;69.14
75782;DHT22;64400;44.762;37.698;2022-10-17T09:44:31;19.07;68.42
75782;DHT22;64400;44.762;37.698;2022-10-17T09:50:00;19.10;69.16
75782;DHT22;64400;44.762;37.698;2022-10-17T09:52:56;19.35;68.13
75782;DHT22;64400;44.762;37.698;2022-10-17T09:55:44;18.84;69.29
75782;DHT22;64400;44.762;37.698;2022-10-17T10:01:38;18.43;71.11
75782;DHT22;64400;44.762;37.698;2022-10-17T10:04:33;18.50;71.13
75782;DHT22;64400;44.762;37.698;2022-10-17T10:07:35;18.77;69.92
75782;DHT22;64400;44.762;37.698;2022-10-17T10:10:27;19.07;69.75
75782;DHT22;64400;44.762;37.698;2022-10-17T10:16:15;19.01;69.61
75782;DHT22;64400;44.762;37.698;2022-10-17T10:19:20;19.17;69.05
75782;DHT22;64400;44.762;37.698;2022-10-17T10:22:16;19.15;68.95
75782;DHT22;64400;44.762;37.698;2022-10-17T10:25:09;19.03;69.65
75782;DHT22;64400;44.762;37.698;2022-10-17T10:27:45;19.11;69.11
75782;DHT22;64400;44.762;37.698;2022-10-17T10:30:32;19.02;70.43
75782;DHT22;64400;44.762;37.698;2022-10-17T10:33:21;19.31;69.45
75782;DHT22;64400;44.762;37.698;2022-10-17T10:36:09;19.43;67.98
75782;DHT22;64400;44.762;37.698;2022-10-17T10:38:56;19.22;69.00
75782;DHT22;64400;44.762;37.698;2022-10-17T10:41:50;19.22;69.02
75782;DHT22;64400;44.762;37.698;2022-10-17T10:44:45;19.16;69.21
75782;DHT22;64400;44.762;37.698;2022-10-17T10:47:49;19.27;69.14
75782;DHT22;64400;44.762;37.698;2022-10-17T10:51:07;19.08;69.44
75782;DHT22;64400;44.762;37.698;2022-10-17T10:56:49;19.01;70.39
75782;DHT22;64400;44.762;37.698;2022-10-17T11:03:00;19.18;69.72
75782;DHT22;64400;44.762;37.698;2022-10-17T11:05:49;19.07;70.34
75782;DHT22;64400;44.762;37.698;2022-10-17T11:08:49;19.06;70.39
75782;DHT22;64400;44.762;37.698;2022-10-17T11:11:31;19.31;69.97
75782;DHT22;64400;44.762;37.698;2022-10-17T11:14:42;19.42;69.07
75782;DHT22;64400;44.762;37.698;2022-10-17T11:17:44;19.15;70.06
75782;DHT22;64400;44.762;37.698;2022-10-17T11:24:24;18.82;71.34
75782;DHT22;64400;44.762;37.698;2022-10-17T11:27:23;18.14;73.74
75782;DHT22;64400;44.762;37.698;2022-10-17T11:30:20;18.26;74.57
75782;DHT22;64400;44.762;37.698;2022-10-17T11:33:28;18.53;73.09
75782;DHT22;64400;44.762;37.698;2022-10-17T11:36:30;18.50;72.99
75782;DHT22;64400;44.762;37.698;2022-10-17T11:39:26;18.32;73.71
75782;DHT22;64400;44.762;37.698;2022-10-17T11:42:47;18.50;73.50
75782;DHT22;64400;44.762;37.698;2022-10-17T11:45:22;18.61;72.99
75782;DHT22;64400;44.762;37.698;2022-10-17T11:48:08;18.80;72.47
75782;DHT22;64400;44.762;37.698;2022-10-17T11:51:11;18.50;73.33
75782;DHT22;64400;44.762;37.698;2022-10-17T11:54:13;18.17;74.46
75782;DHT22;64400;44.762;37.698;2022-10-17T12:03:50;18.13;75.04
75782;DHT22;64400;44.762;37.698;2022-10-17T12:19:22;18.06;75.26
75782;DHT22;64400;44.762;37.698;2022-10-17T12:22:23;18.07;75.54
75782;DHT22;64400;44.762;37.698;2022-10-17T12:26:07;17.87;75.98
75782;DHT22;64400;44.762;37.698;2022-10-17T12:28:45;17.63;76.84
75782;DHT22;64400;44.762;37.698;2022-10-17T12:31:36;17.23;78.60
75782;DHT22;64400;44.762;37.698;2022-10-17T12:34:23;16.86;80.26
75782;DHT22;64400;44.762;37.698;2022-10-17T12:37:10;16.70;81.02
75782;DHT22;64400;44.762;37.698;2022-10-17T12:45:48;15.96;84.18
75782;DHT22;64400;44.762;37.698;2022-10-17T12:51:27;15.75;85.29
75782;DHT22;64400;44.762;37.698;2022-10-17T13:00:50;15.32;87.16
75782;DHT22;64400;44.762;37.698;2022-10-17T13:03:42;15.36;87.15
75782;DHT22;64400;44.762;37.698;2022-10-17T13:10:50;15.29;87.82
75782;DHT22;64400;44.762;37.698;2022-10-17T13:17:30;15.17;88.51
75782;DHT22;64400;44.762;37.698;2022-10-17T13:39:27;14.83;89.83
75782;DHT22;64400;44.762;37.698;2022-10-17T13:42:29;14.70;90.24
75782;DHT22;64400;44.762;37.698;2022-10-17T13:45:36;14.59;91.14
75782;DHT22;64400;44.762;37.698;2022-10-17T14:01:24;14.33;92.81
75782;DHT22;64400;44.762;37.698;2022-10-17T14:04:18;14.30;92.95
75782;DHT22;64400;44.762;37.698;2022-10-17T14:07:11;14.26;93.14
75782;DHT22;64400;44.762;37.698;2022-10-17T14:15:21;14.24;92.91
75782;DHT22;64400;44.762;37.698;2022-10-17T14:18:24;14.18;93.16
75782;DHT22;64400;44.762;37.698;2022-10-17T14:21:18;14.18;93.19
75782;DHT22;64400;44.762;37.698;2022-10-17T14:36:17;14.07;92.92
75782;DHT22;64400;44.762;37.698;2022-10-17T14:39:19;14.07;92.84
75782;DHT22;64400;44.762;37.698;2022-10-17T14:42:19;14.07;92.87
75782;DHT22;64400;44.762;37.698;2022-10-17T14:47:36;14.01;93.54
75782;DHT22;64400;44.762;37.698;2022-10-17T14:56:40;14.03;92.78
75782;DHT22;64400;44.762;37.698;2022-10-17T15:04:51;14.03;92.27
75782;DHT22;64400;44.762;37.698;2022-10-17T15:17:29;14.00;92.34
75782;DHT22;64400;44.762;37.698;2022-10-17T15:20:25;14.01;92.16
75782;DHT22;64400;44.762;37.698;2022-10-17T15:46:20;14.14;89.43
75782;DHT22;64400;44.762;37.698;2022-10-17T15:50:55;14.14;89.53
75782;DHT22;64400;44.762;37.698;2022-10-17T15:55:29;14.07;89.82
75782;DHT22;64400;44.762;37.698;2022-10-17T16:04:29;14.12;89.60
75782;DHT22;64400;44.762;37.698;2022-10-17T16:07:01;14.13;89.80
75782;DHT22;64400;44.762;37.698;2022-10-17T16:10:00;14.12;89.60
75782;DHT22;64400;44.762;37.698;2022-10-17T16:12:54;14.13;89.66
75782;DHT22;64400;44.762;37.698;2022-10-17T16:15:49;14.12;89.65
75782;DHT22;64400;44.762;37.698;2022-10-17T16:18:21;14.11;89.82
75782;DHT22;64400;44.762;37.698;2022-10-17T16:20:53;14.10;89.92
75782;DHT22;64400;44.762;37.698;2022-10-17T16:23:28;14.10;90.00
75782;DHT22;64400;44.762;37.698;2022-10-17T16:26:25;14.12;89.81
75782;DHT22;64400;44.762;37.698;2022-10-17T16:29:13;14.11;89.76
75782;DHT22;64400;44.762;37.698;2022-10-17T16:31:45;14.12;89.72
75782;DHT22;64400;44.762;37.698;2022-10-17T16:34:32;14.12;89.40
75782;DHT22;64400;44.762;37.698;2022-10-17T16:37:04;14.12;89.64
75782;DHT22;64400;44.762;37.698;2022-10-17T16:39:52;14.12;89.86
75782;DHT22;64400;44.762;37.698;2022-10-17T16:42:39;14.10;90.01
75782;DHT22;64400;44.762;37.698;2022-10-17T16:45:21;14.07;89.93
75782;DHT22;64400;44.762;37.698;2022-10-17T16:48:09;14.09;89.90
75782;DHT22;64400;44.762;37.698;2022-10-17T16:51:00;14.09;89.84
75782;DHT22;64400;44.762;37.698;2022-10-17T16:53:55;14.08;90.03
75782;DHT22;64400;44.762;37.698;2022-10-17T16:56:45;14.09;89.84
75782;DHT22;64400;44.762;37.698;2022-10-17T16:59:32;14.08;89.92
75782;DHT22;64400;44.762;37.698;2022-10-17T17:02:36;14.09;89.76
75782;DHT22;64400;44.762;37.698;2022-10-17T17:05:30;14.11;89.52
75782;DHT22;64400;44.762;37.698;2022-10-17T17:08:27;14.12;89.58
75782;DHT22;64400;44.762;37.698;2022-10-17T17:10:59;14.11;89.67
75782;DHT22;64400;44.762;37.698;2022-10-17T17:13:59;14.08;89.70
75782;DHT22;64400;44.762;37.698;2022-10-17T17:16:54;14.08;89.50
75782;DHT22;64400;44.762;37.698;2022-10-17T17:19:54;14.07;89.63
75782;DHT22;64400;44.762;37.698;2022-10-17T17:23:00;14.06;89.28
75782;DHT22;64400;44.762;37.698;2022-10-17T17:25:59;14.04;89.47
75782;DHT22;64400;44.762;37.698;2022-10-17T17:28:58;14.01;89.47
75782;DHT22;64400;44.762;37.698;2022-10-17T17:31:59;13.98;89.73
75782;DHT22;64400;44.762;37.698;2022-10-17T17:34:53;13.95;90.10
75782;DHT22;64400;44.762;37.698;2022-10-17T17:37:50;13.95;90.16
75782;DHT22;64400;44.762;37.698;2022-10-17T17:40:54;13.91;90.31
75782;DHT22;64400;44.762;37.698;2022-10-17T17:43:52;13.89;90.26
75782;DHT22;64400;44.762;37.698;2022-10-17T17:46:46;13.88;90.43
75782;DHT22;64400;44.762;37.698;2022-10-17T17:49:46;13.89;90.36
75782;DHT22;64400;44.762;37.698;2022-10-17T17:52:42;13.85;90.36
75782;DHT22;64400;44.762;37.698;2022-10-17T17:55:42;13.88;90.31
75782;DHT22;64400;44.762;37.698;2022-10-17T17:58:41;13.85;90.26
75782;DHT22;64400;44.762;37.698;2022-10-17T18:01:42;13.82;90.17
75782;DHT22;64400;44.762;37.698;2022-10-17T18:04:29;13.81;90.24
75782;DHT22;64400;44.762;37.698;2022-10-17T18:07:19;13.76;90.38
75782;DHT22;64400;44.762;37.698;2022-10-17T18:10:03;13.81;90.02
75782;DHT22;64400;44.762;37.698;2022-10-17T18:13:00;13.80;90.15
75782;DHT22;64400;44.762;37.698;2022-10-17T18:16:08;13.79;90.21
75782;DHT22;64400;44.762;37.698;2022-10-17T18:19:07;13.74;90.17
75782;DHT22;64400;44.762;37.698;2022-10-17T18:22:08;13.73;90.35
75782;DHT22;64400;44.762;37.698;2022-10-17T18:25:04;13.66;90.53
75782;DHT22;64400;44.762;37.698;2022-10-17T18:27:57;13.66;90.54
75782;DHT22;64400;44.762;37.698;2022-10-17T18:30:52;13.67;90.38
75782;DHT22;64400;44.762;37.698;2022-10-17T18:33:41;13.70;89.85
75782;DHT22;64400;44.762;37.698;2022-10-17T18:36:32;13.78;89.17
75782;DHT22;64400;44.762;37.698;2022-10-17T18:39:27;13.77;89.23
75782;DHT22;64400;44.762;37.698;2022-10-17T18:42:24;13.78;89.31
75782;DHT22;64400;44.762;37.698;2022-10-17T18:45:20;13.76;89.20
75782;DHT22;64400;44.762;37.698;2022-10-17T18:48:08;13.74;89.30
75782;DHT22;64400;44.762;37.698;2022-10-17T18:50:57;13.76;89.18
75782;DHT22;64400;44.762;37.698;2022-10-17T18:53:47;13.81;88.41
75782;DHT22;64400;44.762;37.698;2022-10-17T18:56:38;13.83;88.82
75782;DHT22;64400;44.762;37.698;2022-10-17T18:59:29;13.81;88.75
75782;DHT22;64400;44.762;37.698;2022-10-17T19:02:16;13.83;88.51
75782;DHT22;64400;44.762;37.698;2022-10-17T19:05:07;13.83;88.69
75782;DHT22;64400;44.762;37.698;2022-10-17T19:08:17;13.86;88.75
75782;DHT22;64400;44.762;37.698;2022-10-17T19:11:17;13.84;88.89
75782;DHT22;64400;44.762;37.698;2022-10-17T19:14:12;13.78;89.09
75782;DHT22;64400;44.762;37.698;2022-10-17T19:17:06;13.82;89.22
75782;DHT22;64400;44.762;37.698;2022-10-17T19:19:41;13.80;89.11
75782;DHT22;64400;44.762;37.698;2022-10-17T19:22:19;13.79;89.50
75782;DHT22;64400;44.762;37.698;2022-10-17T19:24:55;13.81;89.17
75782;DHT22;64400;44.762;37.698;2022-10-17T19:27:27;13.82;89.09
75782;DHT22;64400;44.762;37.698;2022-10-17T19:30:00;13.84;89.22
75782;DHT22;64400;44.762;37.698;2022-10-17T19:32:34;13.86;89.19
75782;DHT22;64400;44.762;37.698;2022-10-17T19:35:22;13.84;89.20
75782;DHT22;64400;44.762;37.698;2022-10-17T19:38:17;13.82;89.30
75782;DHT22;64400;44.762;37.698;2022-10-17T19:41:09;13.82;89.13
75782;DHT22;64400;44.762;37.698;2022-10-17T19:43:58;13.81;89.17
75782;DHT22;64400;44.762;37.698;2022-10-17T19:46:32;13.82;89.18
75782;DHT22;64400;44.762;37.698;2022-10-17T19:49:05;13.74;89.57
75782;DHT22;64400;44.762;37.698;2022-10-17T19:51:37;13.77;89.58
75782;DHT22;64400;44.762;37.698;2022-10-17T19:54:10;13.71;89.79
75782;DHT22;64400;44.762;37.698;2022-10-17T19:56:43;13.75;90.12
75782;DHT22;64400;44.762;37.698;2022-10-17T19:59:16;13.74;90.05
75782;DHT22;64400;44.762;37.698;2022-10-17T20:01:48;13.74;89.66
75782;DHT22;64400;44.762;37.698;2022-10-17T20:04:35;13.69;89.99
75782;DHT22;64400;44.762;37.698;2022-10-17T20:07:22;13.75;89.87
75782;DHT22;64400;44.762;37.698;2022-10-17T20:10:09;13.78;89.89
75782;DHT22;64400;44.762;37.698;2022-10-17T20:12:58;13.76;89.73
75782;DHT22;64400;44.762;37.698;2022-10-17T20:15:55;13.73;89.66
75782;DHT22;64400;44.762;37.698;2022-10-17T20:18:42;13.70;89.61
75782;DHT22;64400;44.762;37.698;2022-10-17T20:21:29;13.70;89.59
75782;DHT22;64400;44.762;37.698;2022-10-17T20:24:26;13.73;89.29
75782;DHT22;64400;44.762;37.698;2022-10-17T20:27:12;13.73;89.55
75782;DHT22;64400;44.762;37.698;2022-10-17T20:30:03;13.71;89.29
75782;DHT22;64400;44.762;37.698;2022-10-17T20:32:51;13.66;89.63
75782;DHT22;64400;44.762;37.698;2022-10-17T20:35:42;13.67;89.62
75782;DHT22;64400;44.762;37.698;2022-10-17T20:38:36;13.66;89.64
75782;DHT22;64400;44.762;37.698;2022-10-17T20:41:25;13.66;89.70
75782;DHT22;64400;44.762;37.698;2022-10-17T20:44:12;13.63;89.66
75782;DHT22;64400;44.762;37.698;2022-10-17T20:47:02;13.66;89.87
75782;DHT22;64400;44.762;37.698;2022-10-17T20:49:49;13.63;89.83
75782;DHT22;64400;44.762;37.698;2022-10-17T20:52:36;13.67;89.70
75782;DHT22;64400;44.762;37.698;2022-10-17T20:55:24;13.60;89.46
75782;DHT22;64400;44.762;37.698;2022-10-17T20:58:12;13.53;89.69
75782;DHT22;64400;44.762;37.698;2022-10-17T21:01:04;13.60;89.71
75782;DHT22;64400;44.762;37.698;2022-10-17T21:04:03;13.60;89.51
75782;DHT22;64400;44.762;37.698;2022-10-17T21:06:50;13.51;89.64
75782;DHT22;64400;44.762;37.698;2022-10-17T21:09:37;13.41;89.84
75782;DHT22;64400;44.762;37.698;2022-10-17T21:12:26;13.35;90.31
75782;DHT22;64400;44.762;37.698;2022-10-17T21:15:13;13.38;90.34
75782;DHT22;64400;44.762;37.698;2022-10-17T21:18:00;13.36;89.90
75782;DHT22;64400;44.762;37.698;2022-10-17T21:20:47;13.38;90.22
75782;DHT22;64400;44.762;37.698;2022-10-17T21:23:38;13.39;89.69
75782;DHT22;64400;44.762;37.698;2022-10-17T21:26:31;13.47;89.52
75782;DHT22;64400;44.762;37.698;2022-10-17T21:29:19;13.38;89.82
75782;DHT22;64400;44.762;37.698;2022-10-17T21:32:07;13.38;89.89
75782;DHT22;64400;44.762;37.698;2022-10-17T21:34:54;13.39;90.01
75782;DHT22;64400;44.762;37.698;2022-10-17T21:37:45;13.39;89.47
75782;DHT22;64400;44.762;37.698;2022-10-17T21:40:32;13.39;89.63
75782;DHT22;64400;44.762;37.698;2022-10-17T21:43:19;13.34;89.92
75782;DHT22;64400;44.762;37.698;2022-10-17T21:46:09;13.33;90.04
75782;DHT22;64400;44.762;37.698;2022-10-17T21:48:58;13.20;90.53
75782;DHT22;64400;44.762;37.698;2022-10-17T21:51:46;13.15;90.72
75782;DHT22;64400;44.762;37.698;2022-10-17T21:54:34;13.15;90.73
75782;DHT22;64400;44.762;37.698;2022-10-17T21:57:21;13.07;90.61
75782;DHT22;64400;44.762;37.698;2022-10-17T22:00:09;13.09;90.85
75782;DHT22;64400;44.762;37.698;2022-10-17T22:02:56;13.11;90.41
75782;DHT22;64400;44.762;37.698;2022-10-17T22:05:55;13.09;90.48
75782;DHT22;64400;44.762;37.698;2022-10-17T22:08:45;13.12;90.51
75782;DHT22;64400;44.762;37.698;2022-10-17T22:11:44;13.17;89.86
75782;DHT22;64400;44.762;37.698;2022-10-17T22:14:35;13.11;90.21
75782;DHT22;64400;44.762;37.698;2022-10-17T22:17:07;13.08;90.02
75782;DHT22;64400;44.762;37.698;2022-10-17T22:19:39;13.11;89.79
75782;DHT22;64400;44.762;37.698;2022-10-17T22:22:26;13.11;89.76
75782;DHT22;64400;44.762;37.698;2022-10-17T22:25:13;13.11;89.62
75782;DHT22;64400;44.762;37.698;2022-10-17T22:27:48;13.15;89.78
75782;DHT22;64400;44.762;37.698;2022-10-17T22:30:20;13.10;89.54
75782;DHT22;64400;44.762;37.698;2022-10-17T22:33:07;13.10;89.23
75782;DHT22;64400;44.762;37.698;2022-10-17T22:35:54;13.09;89.29
75782;DHT22;64400;44.762;37.698;2022-10-17T22:38:40;13.03;89.36
75782;DHT22;64400;44.762;37.698;2022-10-17T22:41:33;13.02;89.41
75782;DHT22;64400;44.762;37.698;2022-10-17T22:44:20;12.95;89.61
75782;DHT22;64400;44.762;37.698;2022-10-17T22:47:07;12.90;89.58
75782;DHT22;64400;44.762;37.698;2022-10-17T22:49:54;12.86;89.79
75782;DHT22;64400;44.762;37.698;2022-10-17T22:52:40;12.81;90.16
75782;DHT22;64400;44.762;37.698;2022-10-17T22:55:27;12.74;90.24
75782;DHT22;64400;44.762;37.698;2022-10-17T22:58:14;12.63;90.73
75782;DHT22;64400;44.762;37.698;2022-10-17T23:01:02;12.73;90.42
75782;DHT22;64400;44.762;37.698;2022-10-17T23:03:56;12.70;90.00
75782;DHT22;64400;44.762;37.698;2022-10-17T23:06:43;12.69;90.20
75782;DHT22;64400;44.762;37.698;2022-10-17T23:09:30;12.60;89.99
75782;DHT22;64400;44.762;37.698;2022-10-17T23:12:18;12.62;90.08
75782;DHT22;64400;44.762;37.698;2022-10-17T23:15:12;12.64;90.21
75782;DHT22;64400;44.762;37.698;2022-10-17T23:18:07;12.69;89.99
75782;DHT22;64400;44.762;37.698;2022-10-17T23:21:02;12.69;89.90
75782;DHT22;64400;44.762;37.698;2022-10-17T23:23:56;12.70;89.66
75782;DHT22;64400;44.762;37.698;2022-10-17T23:26:51;12.61;89.93
75782;DHT22;64400;44.762;37.698;2022-10-17T23:29:45;12.67;89.69
75782;DHT22;64400;44.762;37.698;2022-10-17T23:32:39;12.63;89.58
75782;DHT22;64400;44.762;37.698;2022-10-17T23:35:27;12.61;89.56
75782;DHT22;64400;44.762;37.698;2022-10-17T23:38:13;12.56;89.50
75782;DHT22;64400;44.762;37.698;2022-10-17T23:41:00;12.38;89.99
75782;DHT22;64400;44.762;37.698;2022-10-17T23:43:47;12.40;89.77
75782;DHT22;64400;44.762;37.698;2022-10-17T23:46:34;12.36;90.06
75782;DHT22;64400;44.762;37.698;2022-10-17T23:49:21;12.36;90.19
75782;DHT22;64400;44.762;37.698;2022-10-17T23:52:14;12.35;89.47
75782;DHT22;64400;44.762;37.698;2022-10-17T23:55:02;12.30;89.89
75782;DHT22;64400;44.762;37.698;2022-10-17T23:57:49;12.25;90.77
